• Join FlightAware (Why Join?)
  • Login
  • US Flag 
08:21AM EDT


 

Airport Tracker/Info


-or-


 

Live Flight TrackerFlight Track Log ✈ N510SR ✈ 25-Sep-2013 ✈ KTEB - EIDW / DUB

Flight Track Log - Related Links

Times and Time Zones

All times are in EDT time to prevent confusion due to time zone crossing. See the N510SR flight status page for this flight to view local times or setup timezone preferences in your user account.

Time Position Orientation Groundspeed Altitude Reporting Facility
EDT Latitude Longitude Course Direction KTS MPH feet Rate Location/Type
09:17PM 40.8833 -74.0500 360° North 192 221 1,100  Level New York TRACON
09:18PM 40.9333 -74.0500 360° North 225 259 3,400 2,400 Climbing New York TRACON
09:19PM 40.9500 -74.1167 288° West 230 265 5,900 1,320 Climbing New York TRACON
09:20PM 41.0000 -74.1833 315° West 246 283 6,100 60 Climbing New York TRACON
09:21PM 41.0667 -74.1667 11° North 260 299 6,100  Level New York TRACON
09:22PM 41.1167 -74.1500 14° North 257 296 6,100 1,320 Level New York TRACON
09:23PM 41.1667 -74.0500 56° Northeast 280 322 8,800 1,980 Climbing New York TRACON
09:24PM 41.2000 -73.9500 66° East 327 376 10,300 1,860 Climbing New York TRACON
09:26PM 41.2444 -73.7486 74° East 363 418 14,000 2,280 Climbing Boston Center
09:27PM 41.2775 -73.6003 73° East 369 425 16,500 2,160 Climbing Boston Center
09:28PM 41.3056 -73.4764 73° East 376 433 18,400 1,800 Climbing Boston Center
09:29PM 41.3425 -73.3167 73° East 394 453 20,200 1,800 Climbing Boston Center
09:30PM 41.3831 -73.1678 70° East 406 467 22,000 1,680 Climbing Boston Center
09:31PM 41.4339 -73.0242 65° Northeast 418 481 23,700 1,560 Climbing Boston Center
09:32PM 41.4908 -72.8781 62° Northeast 424 488 25,200 1,380 Climbing Boston Center
09:33PM 41.5475 -72.7314 63° Northeast 434 499 26,500 1,380 Climbing Boston Center
09:34PM 41.6064 -72.5789 63° Northeast 440 506 28,100 1,560 Climbing Boston Center
09:35PM 41.6647 -72.4261 63° Northeast 450 518 29,600 1,740 Climbing Boston Center
09:36PM 41.7231 -72.2706 63° Northeast 456 525 31,600 1,680 Climbing Boston Center
09:37PM 41.7831 -72.1200 62° Northeast 451 519 33,000 1,320 Climbing Boston Center
09:38PM 41.8389 -71.9692 64° Northeast 451 519 34,300 1,380 Climbing Boston Center
09:39PM 41.8964 -71.8153 63° Northeast 451 519 35,800 1,260 Climbing Boston Center
09:40PM 41.9375 -71.7089 63° Northeast 451 519 36,800 1,200 Climbing Boston Center
09:41PM 42.0131 -71.5181 62° Northeast 446 513 38,200 1,020 Climbing Boston Center
09:42PM 42.0703 -71.3689 63° Northeast 446 513 38,900 540 Climbing Boston Center
09:43PM 42.1269 -71.2167 63° Northeast 446 513 39,400 480 Climbing Boston Center
09:44PM 42.1836 -71.0589 64° Northeast 453 521 39,900 600 Climbing Boston Center
09:45PM 42.2400 -70.9061 63° Northeast 453 521 40,700 540 Climbing Boston Center
09:46PM 42.2858 -70.7647 66° East 453 521 41,100 180 Climbing Boston Center
09:47PM 42.3419 -70.6086 64° Northeast 453 521 41,100 -60 Level Boston Center
09:48PM 42.4017 -70.4494 63° Northeast 458 527 41,000 -60 Descending Boston Center
09:49PM 42.4592 -70.2872 64° Northeast 464 534 41,000  Level Boston Center
09:50PM 42.5144 -70.1247 65° Northeast 464 534 41,000  Level Boston Center
09:51PM 42.5736 -69.9675 63° Northeast 469 540 41,000  Level Boston Center
09:52PM 42.6303 -69.8042 65° Northeast 469 540 41,000  Level Boston Center
09:53PM 42.6847 -69.6408 66° East 469 540 41,000  Level Boston Center
09:54PM 42.7392 -69.4800 65° Northeast 469 540 41,000  Level Boston Center
09:55PM 42.8014 -69.3158 63° Northeast 475 547 41,000  Level Boston Center
09:56PM 42.8572 -69.1514 65° Northeast 475 547 41,000  Level Boston Center
09:57PM 42.9128 -68.9842 66° East 470 541 41,000  Level Boston Center
09:58PM 42.9778 -68.7931 65° Northeast 470 541 41,000  Level Boston Center
09:59PM 43.0386 -68.6161 65° Northeast 470 541 41,000  Level Boston Center
10:00PM 43.0914 -68.4533 66° East 463 533 41,000  Level Boston Center
10:01PM 43.1461 -68.2933 65° Northeast 463 533 41,000  Level Boston Center
10:02PM 43.1989 -68.1386 65° Northeast 458 527 41,000  Level Boston Center
10:03PM 43.2508 -67.9753 66° East 452 520 41,000  Level Boston Center
10:04PM 43.3031 -67.8200 65° Northeast 452 520 41,000  Level Boston Center
10:05PM 43.3528 -67.6592 67° East 452 520 41,000  Level Boston Center
10:06PM 43.4067 -67.5006 65° Northeast 452 520 41,000  Level Boston Center
10:07PM 43.4578 -67.3389 66° East 452 520 41,000  Level Boston Center
10:08PM 43.5089 -67.1769 66° East 452 520 41,000  Level Boston Center
10:09PM 43.5708 -67.0283 60° Northeast 452 520 41,000  Level Boston Center
10:11PM 43.6500 -66.8667 56° Northeast 440 506 41,000  Level Moncton Center
10:12PM 43.7500 -66.7333 44° Northeast 440 506 41,000  Level Moncton Center
10:13PM 43.8333 -66.6167 45° Northeast 440 506 41,100  Climbing Moncton Center
10:14PM 43.9167 -66.5167 41° Northeast 430 495 41,000 -60 Descending Moncton Center
10:15PM 44.0000 -66.4000 45° Northeast 430 495 41,000  Level Moncton Center
10:16PM 44.0833 -66.2833 45° Northeast 440 506 41,100  Climbing Moncton Center
10:17PM 44.1833 -66.1500 44° Northeast 440 506 41,100  Level Moncton Center
10:18PM 44.2833 -66.0333 40° Northeast 450 518 41,100 -60 Level Moncton Center
10:19PM 44.3667 -65.9000 49° Northeast 450 518 41,000 -60 Descending Moncton Center
10:20PM 44.4500 -65.7833 45° Northeast 460 529 41,000  Level Moncton Center
10:21PM 44.5500 -65.6333 47° Northeast 460 529 41,000  Level Moncton Center
10:22PM 44.6333 -65.5167 45° Northeast 460 529 41,000  Level Moncton Center
10:23PM 44.7167 -65.4167 40° Northeast 460 529 41,100  Climbing Moncton Center
10:24PM 44.8167 -65.2667 47° Northeast 460 529 41,100 -60 Level Moncton Center
10:25PM 44.9000 -65.1500 45° Northeast 450 518 41,000 -420 Descending Moncton Center
10:26PM 44.9833 -65.0333 45° Northeast 450 518 40,300 -900 Descending Moncton Center
10:27PM 45.0833 -64.9000 43° Northeast 460 529 39,300 -600 Descending Moncton Center
10:28PM 45.1667 -64.7500 52° Northeast 460 529 39,100 -120 Descending Moncton Center
10:29PM 45.2667 -64.6333 39° Northeast 460 529 39,100  Level Moncton Center
10:30PM 45.3500 -64.5000 48° Northeast 460 529 39,100  Level Moncton Center
10:31PM 45.4333 -64.3667 48° Northeast 460 529 39,100  Level Moncton Center
10:32PM 45.5167 -64.2500 44° Northeast 450 518 39,100 -60 Level Moncton Center
10:33PM 45.6167 -64.1167 43° Northeast 450 518 39,000  Descending Moncton Center
10:34PM 45.7000 -63.9833 48° Northeast 450 518 39,100  Climbing Moncton Center
10:35PM 45.7833 -63.8500 48° Northeast 450 518 39,100  Level Moncton Center
10:36PM 45.8833 -63.7167 43° Northeast 460 529 39,100  Level Moncton Center
10:37PM 45.9667 -63.6000 44° Northeast 460 529 39,100  Level Moncton Center
10:38PM 46.0500 -63.4500 51° Northeast 460 529 39,100  Level Moncton Center
10:39PM 46.1500 -63.3333 39° Northeast 460 529 39,100  Level Moncton Center
10:40PM 46.2333 -63.2167 44° Northeast 450 518 39,100  Level Moncton Center
10:41PM 46.3167 -63.0667 51° Northeast 450 518 39,100  Level Moncton Center
10:42PM 46.4000 -62.9333 48° Northeast 450 518 39,100 -60 Level Moncton Center
10:43PM 46.5000 -62.8000 43° Northeast 450 518 39,000 -60 Descending Moncton Center
10:44PM 46.5833 -62.6667 48° Northeast 450 518 39,000  Level Moncton Center
10:45PM 46.6833 -62.5167 46° Northeast 450 518 39,000  Level Moncton Center
10:46PM 46.7667 -62.4000 44° Northeast 450 518 39,100  Climbing Moncton Center
10:47PM 46.8500 -62.2667 48° Northeast 440 506 39,000  Descending Moncton Center
10:48PM 46.9167 -62.1167 57° Northeast 440 506 39,100  Climbing Moncton Center
10:49PM 47.0000 -61.9833 47° Northeast 440 506 39,100  Level Moncton Center
10:50PM 47.1000 -61.8667 38° Northeast 450 518 39,100  Level Moncton Center
10:51PM 47.1833 -61.7333 47° Northeast 450 518 39,100  Level Moncton Center
10:52PM 47.2667 -61.5833 51° Northeast 450 518 39,100 -60 Level Moncton Center
10:53PM 47.3500 -61.4500 47° Northeast 450 518 39,000 -60 Descending Moncton Center
10:54PM 47.4333 -61.3333 43° Northeast 460 529 39,000  Level Moncton Center
10:55PM 47.5167 -61.1667 53° Northeast 460 529 39,100  Climbing Moncton Center
10:56PM 47.6167 -61.0500 38° Northeast 460 529 39,100  Level Moncton Center
10:57PM 47.7000 -60.8833 53° Northeast 460 529 39,100 -60 Level Moncton Center
10:58PM 47.7833 -60.7333 50° Northeast 460 529 39,000 -60 Descending Moncton Center
10:59PM 47.8500 -60.6000 53° Northeast 460 529 39,000  Level Moncton Center
11:00PM 47.9500 -60.4500 45° Northeast 460 529 39,000  Level Moncton Center
11:01PM 48.0333 -60.3167 47° Northeast 460 529 39,100  Climbing Moncton Center
11:02PM 48.1167 -60.1833 47° Northeast 460 529 39,000 -60 Descending Moncton Center
11:03PM 48.2000 -60.0167 53° Northeast 460 529 39,000  Level Moncton Center
11:04PM 48.2833 -59.9000 43° Northeast 460 529 39,000  Level Moncton Center
11:05PM 48.3833 -59.7333 48° Northeast 460 529 39,100  Climbing Moncton Center
11:06PM 48.4500 -59.6000 53° Northeast 460 529 39,000  Descending Moncton Center
11:07PM 48.5500 -59.4333 48° Northeast 460 529 39,100  Climbing Moncton Center
11:08PM 48.6333 -59.3000 47° Northeast 460 529 39,000  Descending Moncton Center
11:09PM 48.7167 -59.1333 53° Northeast 470 541 39,100  Climbing Moncton Center
11:10PM 48.8000 -58.9833 50° Northeast 470 541 39,100 -60 Level Moncton Center
11:11PM 48.8667 -58.8500 53° Northeast 460 529 39,000  Descending Moncton Center
11:12PM 48.9667 -58.6833 48° Northeast 460 529 39,100  Climbing Moncton Center
11:13PM 49.0500 -58.5500 46° Northeast 460 529 39,100  Level Moncton Center
11:14PM 49.1167 -58.4000 56° Northeast 460 529 39,100 -60 Level Moncton Center
11:15PM 49.2000 -58.2500 50° Northeast 460 529 39,000 -60 Descending Moncton Center
11:16PM 49.2667 -58.0833 58° Northeast 460 529 39,000  Level Moncton Center
11:17PM 49.3333 -57.9000 61° Northeast 460 529 39,000  Level Moncton Center
11:18PM 49.4000 -57.7333 58° Northeast 470 541 39,100  Climbing Moncton Center
11:19PM 49.4667 -57.5333 63° Northeast 470 541 39,100 300 Level Moncton Center
11:20PM 49.5333 -57.3667 58° Northeast 470 541 39,700 360 Climbing Moncton Center
11:21PM 49.5833 -57.2167 63° Northeast 460 529 39,900 120 Climbing Moncton Center
11:22PM 49.6667 -57.0500 52° Northeast 460 529 40,000  Climbing Moncton Center
11:23PM 49.7167 -56.8833 65° Northeast 470 541 40,000 -120 Level Moncton Center
11:24PM 49.7833 -56.6833 63° Northeast 470 541 39,800 -480 Descending Moncton Center
11:25PM 49.8667 -56.5167 52° Northeast 480 552 39,100 -360 Descending Moncton Center
11:26PM 49.9333 -56.3167 63° Northeast 490 564 39,100  Level Moncton Center
11:27PM 49.9833 -56.1333 67° East 480 552 39,100  Level Moncton Center
11:28PM 50.0667 -55.9667 52° Northeast 490 564 39,100  Level Moncton Center
11:29PM 50.1333 -55.7667 62° Northeast 480 552 39,100  Level Moncton Center
11:30PM 50.1833 -55.6000 65° Northeast 480 552 39,100  Level Moncton Center
11:31PM 50.2667 -55.4000 57° Northeast 480 552 39,100  Level Moncton Center
11:32PM 50.3167 -55.2333 65° Northeast 490 564 39,100  Level Moncton Center
11:33PM 50.4000 -55.0333 57° Northeast 490 564 39,100  Level Moncton Center
11:34PM 50.4667 -54.8667 58° Northeast 480 552 39,100  Level Moncton Center
11:35PM 50.5667 -54.5333 65° Northeast 480 552 39,100  Level Gander Center
11:36PM 50.6000 -54.4333 62° Northeast 480 552 39,100  Level Gander Center
11:37PM 50.6500 -54.2333 68° East 480 552 39,100  Level Gander Center
11:38PM 50.7000 -54.1000 59° Northeast 480 552 39,100  Level Moncton Center
11:39PM 50.7667 -53.9167 60° Northeast 480 552 39,100  Level Moncton Center
11:40PM 50.8167 -53.7167 68° East 490 564 39,100  Level Moncton Center
11:41PM 50.8833 -53.5167 62° Northeast 490 564 39,100 -60 Level Moncton Center
11:42PM 50.9500 -53.3500 58° Northeast 490 564 39,000 -60 Descending Moncton Center
11:43PM 51.0167 -53.1500 62° Northeast 490 564 39,000  Level Moncton Center
11:44PM 51.0833 -52.9667 60° Northeast 500 575 39,100 360 Climbing Moncton Center
11:45PM 51.1500 -52.7667 62° Northeast 490 564 39,800 420 Climbing Moncton Center
11:46PM 51.2000 -52.5667 68° East 490 564 40,000 120 Climbing Moncton Center
11:47PM 51.2667 -52.3500 64° Northeast 480 552 40,100  Climbing Moncton Center
11:48PM 51.3333 -52.1833 57° Northeast 490 564 40,000 -60 Descending Moncton Center
11:49PM 51.3833 -51.9667 70° East 510 587 40,000  Level Moncton Center
11:50PM 51.4500 -51.7667 62° Northeast 510 587 40,100  Climbing Moncton Center
11:51PM 51.5167 -51.5500 64° Northeast 510 587 40,000 -60 Descending Moncton Center
11:52PM 51.5833 -51.3500 62° Northeast 510 587 40,000  Level Moncton Center
11:53PM 51.6333 -51.1333 70° East 520 598 40,000  Level Moncton Center
11:53PM 51.6833 -51.0167 55° Northeast 510 587 40,000 60 Level Gander Center
11:54PM 51.7167 -50.8667 70° East 510 587 40,100  Climbing Gander Center
11:55PM 51.7833 -50.6667 62° Northeast 510 587 40,000  Descending Gander Center
11:56PM 51.8333 -50.4667 68° East 520 598 40,100  Climbing Gander Center
11:58PM 51.9096 -50.2541 60° Northeast  Level FlightAware Approximate
12:00AM 52.0000 -50.0000 59° Northeast 509 586 40,000  Level ETMS Enhanced Traffic Management System
12:05AM 52.3574 -48.9849 60° Northeast  Level FlightAware Approximate
12:06AM 52.5679 -48.3982 61° Northeast 509 586 40,000  Level FlightAware Transoceanic
12:07AM 52.6374 -48.1951 61° Northeast 509 586 40,000  Level FlightAware Transoceanic
12:08AM 52.7065 -47.9913 61° Northeast 509 586 40,000  Level FlightAware Transoceanic
12:09AM 52.7752 -47.7869 61° Northeast 509 586 40,000  Level FlightAware Transoceanic
12:10AM 52.8436 -47.5819 61° Northeast 509 586 40,000  Level FlightAware Transoceanic
12:11AM 52.9117 -47.3762 61° Northeast 509 586 40,000  Level FlightAware Transoceanic
12:12AM 52.9794 -47.1698 62° Northeast 509 586 40,000  Level FlightAware Transoceanic
12:13AM 53.0467 -46.9629 62° Northeast 509 586 40,000  Level FlightAware Transoceanic
12:14AM 53.1137 -46.7552 62° Northeast 509 586 40,000  Level FlightAware Transoceanic
12:15AM 53.1803 -46.5470 62° Northeast 509 586 40,000  Level FlightAware Transoceanic
12:16AM 53.2465 -46.3380 62° Northeast 509 586 40,000  Level FlightAware Transoceanic
12:17AM 53.3124 -46.1284 62° Northeast 509 586 40,000  Level FlightAware Transoceanic
12:18AM 53.3779 -45.9182 63° Northeast 509 586 40,000  Level FlightAware Transoceanic
12:19AM 53.4431 -45.7074 63° Northeast 509 586 40,000  Level FlightAware Transoceanic
12:20AM 53.5078 -45.4959 63° Northeast 509 586 40,000  Level FlightAware Transoceanic
12:21AM 53.5722 -45.2837 63° Northeast 509 586 40,000  Level FlightAware Transoceanic
12:22AM 53.6362 -45.0709 63° Northeast 509 586 40,000  Level FlightAware Transoceanic
12:23AM 53.6999 -44.8575 63° Northeast 509 586 40,000  Level FlightAware Transoceanic
12:24AM 53.7631 -44.6434 64° Northeast 509 586 40,000  Level FlightAware Transoceanic
12:25AM 53.8260 -44.4286 64° Northeast 509 586 40,000  Level FlightAware Transoceanic
12:26AM 53.8885 -44.2133 64° Northeast 509 586 40,000  Level FlightAware Transoceanic
12:27AM 53.9506 -43.9972 64° Northeast 509 586 40,000  Level FlightAware Transoceanic
12:28AM 54.0123 -43.7806 64° Northeast 509 586 40,000  Level FlightAware Transoceanic
12:29AM 54.0736 -43.5633 64° Northeast 509 586 40,000  Level FlightAware Transoceanic
12:30AM 54.1345 -43.3453 65° Northeast 509 586 40,000  Level FlightAware Transoceanic
12:31AM 54.1951 -43.1268 65° Northeast 509 586 40,000  Level FlightAware Transoceanic
12:32AM 54.2552 -42.9075 65° Northeast 509 586 40,000  Level FlightAware Transoceanic
12:33AM 54.3150 -42.6877 65° Northeast 509 586 40,000  Level FlightAware Transoceanic
12:34AM 54.3743 -42.4672 65° Northeast 509 586 40,000  Level FlightAware Transoceanic
12:35AM 54.4332 -42.2460 65° Northeast 509 586 40,000  Level FlightAware Transoceanic
12:36AM 54.4918 -42.0243 66° East 509 586 40,000  Level FlightAware Transoceanic
12:37AM 54.5499 -41.8019 66° East 509 586 40,000  Level FlightAware Transoceanic
12:38AM 54.6076 -41.5788 66° East 509 586 40,000  Level FlightAware Transoceanic
12:39AM 54.6649 -41.3552 66° East 509 586 40,000  Level FlightAware Transoceanic
12:40AM 54.7218 -41.1309 66° East 509 586 40,000  Level FlightAware Transoceanic
12:41AM 54.7783 -40.9059 67° East 509 586 40,000  Level FlightAware Transoceanic
12:42AM 54.8344 -40.6804 67° East 509 586 40,000  Level FlightAware Transoceanic
12:43AM 54.8900 -40.4542 67° East 509 586 40,000  Level FlightAware Transoceanic
12:44AM 54.9452 -40.2274 67° East 509 586 40,000 180 Level FlightAware Transoceanic
12:45AM 54.9949 -40.0214 67° East  Level FlightAware Approximate
12:46AM 55.0442 -39.8148 67° East  Level FlightAware Approximate
12:47AM 55.0245 -39.8279 76° East  Level FlightAware Approximate
12:48AM 55.0550 -39.6104 76° East  Level FlightAware Approximate
12:48AM 55.0000 -40.0000 76° East 492 566 41,000  Level ETMS Enhanced Traffic Management System
12:49AM 55.0852 -39.3927 76° East  Level FlightAware Approximate
12:50AM 55.1149 -39.1746 77° East  Level FlightAware Approximate
12:51AM 55.1443 -38.9562 77° East  Level FlightAware Approximate
12:52AM 55.1732 -38.7375 77° East  Level FlightAware Approximate
12:53AM 55.2018 -38.5185 77° East  Level FlightAware Approximate
12:54AM 55.3114 -37.6681 78° East 492 566 41,000  Level FlightAware Transoceanic
12:55AM 55.3401 -37.4329 78° East 492 566 41,000  Level FlightAware Transoceanic
12:56AM 55.3683 -37.1975 78° East 492 566 41,000  Level FlightAware Transoceanic
12:57AM 55.3961 -36.9616 78° East 492 566 41,000  Level FlightAware Transoceanic
12:58AM 55.4234 -36.7255 79° East 492 566 41,000  Level FlightAware Transoceanic
12:59AM 55.4503 -36.4890 79° East 492 566 41,000  Level FlightAware Transoceanic
01:00AM 55.4767 -36.2522 79° East 492 566 41,000  Level FlightAware Transoceanic
01:01AM 55.5027 -36.0151 79° East 492 566 41,000  Level FlightAware Transoceanic
01:02AM 55.5282 -35.7777 79° East 492 566 41,000  Level FlightAware Transoceanic
01:03AM 55.5532 -35.5400 80° East 492 566 41,000  Level FlightAware Transoceanic
01:04AM 55.5778 -35.3020 80° East 492 566 41,000  Level FlightAware Transoceanic
01:05AM 55.6019 -35.0636 80° East 492 566 41,000  Level FlightAware Transoceanic
01:06AM 55.6255 -34.8250 80° East 492 566 41,000  Level FlightAware Transoceanic
01:07AM 55.6487 -34.5862 80° East 492 566 41,000  Level FlightAware Transoceanic
01:08AM 55.6714 -34.3470 81° East 492 566 41,000  Level FlightAware Transoceanic
01:09AM 55.6937 -34.1075 81° East 492 566 41,000  Level FlightAware Transoceanic
01:10AM 55.7155 -33.8678 81° East 492 566 41,000  Level FlightAware Transoceanic
01:11AM 55.7368 -33.6278 81° East 492 566 41,000  Level FlightAware Transoceanic
01:12AM 55.7577 -33.3876 81° East 492 566 41,000  Level FlightAware Transoceanic
01:13AM 55.7780 -33.1471 82° East 492 566 41,000  Level FlightAware Transoceanic
01:14AM 55.7980 -32.9063 82° East 492 566 41,000  Level FlightAware Transoceanic
01:15AM 55.8174 -32.6654 82° East 492 566 41,000  Level FlightAware Transoceanic
01:16AM 55.8364 -32.4241 82° East 492 566 41,000  Level FlightAware Transoceanic
01:17AM 55.8549 -32.1827 82° East 492 566 41,000  Level FlightAware Transoceanic
01:18AM 55.8729 -31.9410 83° East 492 566 41,000  Level FlightAware Transoceanic
01:19AM 55.8905 -31.6991 83° East 492 566 41,000  Level FlightAware Transoceanic
01:20AM 55.9075 -31.4570 83° East 492 566 41,000  Level FlightAware Transoceanic
01:21AM 55.9241 -31.2146 83° East 492 566 41,000  Level FlightAware Transoceanic
01:22AM 55.9403 -30.9721 83° East 492 566 41,000  Level FlightAware Transoceanic
01:23AM 55.9559 -30.7293 84° East 492 566 41,000  Level FlightAware Transoceanic
01:24AM 55.9711 -30.4864 84° East 492 566 41,000  Level FlightAware Transoceanic
01:25AM 55.9858 -30.2433 84° East 492 566 41,000  Level FlightAware Transoceanic
01:26AM 55.9991 -30.0152 84° East  Level FlightAware Approximate
01:26AM 56.0000 -30.0000 96° East 492 566 41,000  Level ETMS Enhanced Traffic Management System
01:27AM 56.0120 -29.7869 84° East  Level FlightAware Approximate
01:28AM 55.9885 -29.8023 96° East  Level FlightAware Approximate
01:29AM 55.9748 -29.5743 96° East  Level FlightAware Approximate
01:30AM 55.9607 -29.3465 96° East  Level FlightAware Approximate
01:31AM 55.9462 -29.1189 96° East  Level FlightAware Approximate
01:32AM 55.8905 -28.3009 97° East 492 566 41,000  Level FlightAware Transoceanic
01:33AM 55.8729 -28.0590 97° East 492 566 41,000  Level FlightAware Transoceanic
01:34AM 55.8549 -27.8173 98° East 492 566 41,000  Level FlightAware Transoceanic
01:35AM 55.8364 -27.5759 98° East 492 566 41,000  Level FlightAware Transoceanic
01:36AM 55.8174 -27.3346 98° East 492 566 41,000  Level FlightAware Transoceanic
01:37AM 55.7980 -27.0937 98° East 492 566 41,000  Level FlightAware Transoceanic
01:38AM 55.7780 -26.8529 98° East 492 566 41,000  Level FlightAware Transoceanic
01:39AM 55.7577 -26.6124 99° East 492 566 41,000  Level FlightAware Transoceanic
01:40AM 55.7368 -26.3722 99° East 492 566 41,000  Level FlightAware Transoceanic
01:41AM 55.7155 -26.1322 99° East 492 566 41,000  Level FlightAware Transoceanic
01:42AM 55.6937 -25.8925 99° East 492 566 41,000  Level FlightAware Transoceanic
01:43AM 55.6714 -25.6530 99° East 492 566 41,000  Level FlightAware Transoceanic
01:44AM 55.6487 -25.4139 100° East 492 566 41,000  Level FlightAware Transoceanic
01:45AM 55.6255 -25.1750 100° East 492 566 41,000  Level FlightAware Transoceanic
01:46AM 55.6019 -24.9363 100° East 492 566 41,000  Level FlightAware Transoceanic
01:47AM 55.5778 -24.6980 100° East 492 566 41,000  Level FlightAware Transoceanic
01:48AM 55.5532 -24.4600 100° East 492 566 41,000  Level FlightAware Transoceanic
01:49AM 55.5282 -24.2223 101° East 492 566 41,000  Level FlightAware Transoceanic
01:50AM 55.5027 -23.9849 101° East 492 566 41,000  Level FlightAware Transoceanic
01:51AM 55.4767 -23.7478 101° East 492 566 41,000  Level FlightAware Transoceanic
01:52AM 55.4503 -23.5110 101° East 492 566 41,000  Level FlightAware Transoceanic
01:53AM 55.4234 -23.2745 101° East 492 566 41,000  Level FlightAware Transoceanic
01:54AM 55.3961 -23.0384 102° East 492 566 41,000  Level FlightAware Transoceanic
01:55AM 55.3683 -22.8025 102° East 492 566 41,000  Level FlightAware Transoceanic
01:56AM 55.3401 -22.5671 102° East 492 566 41,000  Level FlightAware Transoceanic
01:57AM 55.3114 -22.3319 102° East 492 566 41,000  Level FlightAware Transoceanic
01:58AM 55.2823 -22.0971 102° East 492 566 41,000  Level FlightAware Transoceanic
01:59AM 55.2527 -21.8626 103° East 492 566 41,000  Level FlightAware Transoceanic
02:00AM 55.2227 -21.6285 103° East 492 566 41,000  Level FlightAware Transoceanic
02:01AM 55.1922 -21.3948 103° East 492 566 41,000  Level FlightAware Transoceanic
02:02AM 55.1613 -21.1614 103° East 492 566 41,000  Level FlightAware Transoceanic
02:03AM 55.1299 -20.9284 103° East 492 566 41,000  Level FlightAware Transoceanic
02:04AM 55.0981 -20.6957 104° East 492 566 41,000  Level FlightAware Transoceanic
02:05AM 55.0658 -20.4634 104° East 492 566 41,000  Level FlightAware Transoceanic
02:06AM 55.0331 -20.2315 104° East 492 566 41,000 -180 Level FlightAware Transoceanic
02:07AM 55.0021 -20.0145 104° East  Level FlightAware Approximate
02:08AM 54.9707 -19.7977 104° East  Level FlightAware Approximate
02:09AM 54.9883 -19.8073 96° East  Level FlightAware Approximate
02:10AM 54.9743 -19.5851 96° East  Level FlightAware Approximate
02:11AM 54.9600 -19.3630 96° East  Level FlightAware Approximate
02:12AM 54.9453 -19.1411 97° East  Level FlightAware Approximate
02:13AM 54.9302 -18.9194 97° East  Level FlightAware Approximate
02:14AM 54.9146 -18.6978 97° East  Level FlightAware Approximate
02:15AM 54.8987 -18.4764 97° East  Level FlightAware Approximate
02:16AM 54.8824 -18.2552 97° East  Level FlightAware Approximate
02:17AM 54.8656 -18.0342 97° East  Level FlightAware Approximate
02:18AM 54.8485 -17.8134 98° East  Level FlightAware Approximate
02:19AM 54.8310 -17.5927 98° East  Level FlightAware Approximate
02:20AM 54.8134 -17.3722 97° East  Level FlightAware Approximate
02:21AM 54.7967 -17.1515 97° East  Level FlightAware Approximate
02:22AM 54.7797 -16.9310 98° East  Level FlightAware Approximate
02:23AM 54.7623 -16.7107 98° East  Level FlightAware Approximate
02:24AM 54.7444 -16.4906 98° East  Level FlightAware Approximate
02:25AM 54.7262 -16.2707 98° East  Level FlightAware Approximate
02:26AM 54.7076 -16.0509 98° East  Level FlightAware Approximate
02:27AM 54.6885 -15.8314 98° East  Level FlightAware Approximate
02:28AM 54.6691 -15.6121 99° East  Level FlightAware Approximate
02:29AM 54.6493 -15.3931 99° East  Level FlightAware Approximate
02:30AM 54.6291 -15.1742 99° East  Level FlightAware Approximate
02:31AM 54.6085 -14.9555 99° East  Level FlightAware Approximate
02:32AM 54.5869 -14.7373 100° East  Level FlightAware Approximate
02:33AM 54.5645 -14.5194 100° East  Level FlightAware Approximate
02:34AM 54.5417 -14.3017 100° East  Level FlightAware Approximate
02:35AM 54.5186 -14.0843 100° East  Level FlightAware Approximate
02:36AM 54.4950 -13.8671 100° East  Level FlightAware Approximate
02:37AM 54.4711 -13.6502 101° East  Level FlightAware Approximate
02:38AM 54.4467 -13.4335 101° East  Level FlightAware Approximate
02:39AM 54.4220 -13.2171 101° East  Level FlightAware Approximate
02:40AM 54.3969 -13.0010 101° East  Level FlightAware Approximate
02:41AM 54.3714 -12.7851 101° East  Level FlightAware Approximate
02:42AM 54.3455 -12.5695 102° East  Level FlightAware Approximate
02:43AM 54.3192 -12.3542 102° East  Level FlightAware Approximate
02:44AM 54.2934 -12.1389 102° East  Level FlightAware Approximate
02:45AM 54.2673 -11.9237 102° East  Level FlightAware Approximate
02:46AM 54.2407 -11.7089 102° East  Level FlightAware Approximate
02:47AM 54.2138 -11.4944 102° East  Level FlightAware Approximate
02:48AM 54.1860 -11.2803 102° East  Level FlightAware Approximate
02:49AM 54.1578 -11.0665 103° East  Level FlightAware Approximate
02:50AM 54.1289 -10.8532 104° East  Level FlightAware Approximate
02:51AM 54.0977 -10.6410 104° East  Level FlightAware Approximate
02:52AM 54.0663 -10.4290 98° East  Level FlightAware Approximate
02:53AM 54.0471 -10.2130 104° East  Level FlightAware Approximate
02:54AM 54.0153 -10.0014 105° East  Level FlightAware Approximate
02:55AM 53.9821 -9.7906 102° East  Level FlightAware Approximate
02:56AM 53.9545 -9.5777 102° East  Level FlightAware Approximate
02:57AM 53.9224 -9.3671 111° Southeast  Level FlightAware Approximate
02:58AM 53.8826 -9.1604 102° East  Level FlightAware Approximate
02:59AM 53.8561 -8.9475 102° East  Level FlightAware Approximate
03:00AM 53.8281 -8.7354 106° East  Level FlightAware Approximate
03:01AM 53.7966 -8.5249 103° East  Level FlightAware Approximate
03:01AM 53.9789 -8.9605 103° East 472 543 32,500  Level FlightAware UK
03:01AM 53.9701 -8.8504 98° East 470 541 31,500 -2,100 Descending FlightAware UK
03:02AM 53.9572 -8.7410 101° East 474 545 30,400 -2,220 Descending FlightAware UK
03:02AM 53.9439 -8.6306 102° East 480 552 29,300 -2,220 Descending FlightAware UK
03:03AM 53.9310 -8.5202 101° East 474 545 28,200 -2,400 Descending FlightAware UK
03:03AM 53.9178 -8.4103 102° East 464 534 26,900 -2,640 Descending FlightAware UK
03:04AM 53.9047 -8.3039 102° East 456 525 25,600 -2,640 Descending FlightAware UK
03:04AM 53.8924 -8.2010 101° East 446 513 24,300 -2,700 Descending FlightAware UK
03:05AM 53.8799 -8.0987 102° East 436 502 22,900 -2,820 Descending FlightAware UK
03:05AM 53.8679 -7.9996 102° East 422 486 21,500 -2,700 Descending FlightAware UK
03:06AM 53.8562 -7.9041 102° East 408 470 20,200 -2,700 Descending FlightAware UK
03:06AM 53.8446 -7.8111 102° East 394 453 18,800 -2,820 Descending FlightAware UK
03:07AM 53.8337 -7.7226 102° East 378 435 17,400 -3,000 Descending FlightAware UK
03:07AM 53.8229 -7.6344 102° East 374 430 15,800 -3,000 Descending FlightAware UK
03:08AM 53.8117 -7.5467 102° East 364 419 14,400 -2,100 Descending FlightAware UK
03:08AM 53.8014 -7.4655 102° East 344 396 13,700 -1,920 Descending FlightAware UK
03:09AM 53.7920 -7.3902 102° East 334 384 12,500 -1,920 Descending FlightAware UK
03:09AM 53.7804 -7.2995 102° East 312 359 11,600 -1,080 Descending FlightAware UK
03:10AM 53.7713 -7.2329 103° East 1 1 11,300 -1,020 Descending FlightAware UK
03:10AM 53.7622 -7.1715 104° East 1 1 10,600 -1,800 Descending FlightAware UK
03:11AM 53.7576 -7.1365 103° East 1 1 9,900 -2,220 Descending FlightAware UK
03:11AM 53.7529 -7.1002 102° East 1 1 9,300 -1,860 Descending FlightAware UK
03:11AM 53.7488 -7.0669 102° East 1 1 8,800 -1,860 Descending FlightAware UK
03:12AM 53.7445 -7.0325 102° East 1 1 8,200 -2,040 Descending FlightAware UK
03:12AM 53.7400 -6.9979 102° East 1 1 7,600 -1,680 Descending FlightAware UK
03:12AM 53.7352 -6.9626 103° East 1 1 7,200 -1,500 Descending FlightAware UK
03:13AM 53.7308 -6.9294 103° East 1 1 6,700 -1,860 Descending FlightAware UK
03:13AM 53.7266 -6.8979 103° East 1 1 6,100 -1,680 Descending FlightAware UK
03:13AM 53.7222 -6.8656 103° East 1 1 5,700 -1,380 Descending FlightAware UK
03:13AM 53.7178 -6.8342 103° East 1 1 5,300 -1,380 Descending FlightAware UK
03:14AM 53.7135 -6.8037 103° East 1 1 4,900 -540 Descending FlightAware UK
03:14AM 53.7091 -6.7723 104° East 1 1 5,000 120 Climbing FlightAware UK
03:14AM 53.6940 -6.7536 144° Southeast 1 1 5,000  Level FlightAware UK
03:15AM 53.6761 -6.7595 191° South 1 1 5,000  Level FlightAware UK
03:15AM 53.6579 -6.7696 198° South 1 1 5,000  Level FlightAware UK
03:15AM 53.6400 -6.7834 205° Southwest 1 1 5,000 -360 Level FlightAware UK
03:16AM 53.6221 -6.7954 202° Southwest 1 1 4,800 -1,020 Descending FlightAware UK
03:16AM 53.6047 -6.8080 203° Southwest 1 1 4,400 -840 Descending FlightAware UK
03:16AM 53.5883 -6.8195 203° Southwest 1 1 4,300 -540 Descending FlightAware UK
03:16AM 53.5743 -6.8297 203° Southwest 1 1 4,100 -540 Descending FlightAware UK
03:17AM 53.5600 -6.8390 201° Southwest 1 1 4,000 -180 Descending FlightAware UK
03:17AM 53.5445 -6.8393 181° South 1 1 4,000  Level FlightAware UK
03:17AM 53.5297 -6.8433 189° South 1 1 4,000  Level FlightAware UK
03:18AM 53.5142 -6.8422 178° South 1 1 4,000  Level FlightAware UK
03:18AM 53.4990 -6.8407 177° South 1 1 4,000  Level FlightAware UK
03:18AM 53.4922 -6.8130 112° Southeast 1 1 4,000  Level FlightAware UK
03:19AM 53.4845 -6.7928 123° Southeast 1 1 4,000  Level FlightAware UK
03:19AM 53.4772 -6.7702 118° Southeast 1 1 4,000 -840 Level FlightAware UK
03:19AM 53.4703 -6.7479 118° Southeast 1 1 3,500 -1,500 Descending FlightAware UK
03:19AM 53.4637 -6.7282 119° Southeast 1 1 3,100 -240 Descending FlightAware UK
03:21AM 53.4373 -6.5863 107° East 1 1 3,000 -120 Descending FlightAware UK
03:22AM 53.4345 -6.5222 94° East 1 1 2,900 -120 Descending FlightAware UK
03:22AM 53.4331 -6.4965 95° East 1 1 2,900  Level FlightAware UK
03:24AM 53.4167 -6.2667 102° East  Level FlightAware Approximate
03:31AM 53.4213 -6.2701 102° East  Level Estimated
03:32AM 53.4167 -6.2667 102° East  Level FlightAware Approximate
03:33AM 53.4213 -6.2701 102° East  Level Estimated
03:34AM 53.4167 -6.2667 102° East  Level FlightAware Approximate
03:35AM 53.4213 -6.2701 102° East  Level Estimated
03:36AM 53.4167 -6.2667 102° East  Level FlightAware Approximate
03:37AM 53.4213 -6.2701 102° East  Level Estimated